Time;durP1;ratioP1;P1;durP2;ratioP2;P2;SDS_P1;SDS_P2;PMS_P1;PMS_P2;Temp;Humidity;BMP_temperature;BMP_pressure;BME280_temperature;BME280_humidity;BME280_pressure;Samples;Min_cycle;Max_cycle;Signal;HPM_P1;HPM_P2
2023/12/11 00:00:09;;;;;;;4.00;1.07;;;13.70;67.80;;;;;;5045692;28;20213;-55
2023/12/11 00:02:34;;;;;;;1.53;0.90;;;13.60;68.00;;;;;;5039650;28;21056;-55
2023/12/11 00:05:00;;;;;;;2.80;1.10;;;13.50;68.00;;;;;;5033940;28;20497;-55
2023/12/11 00:07:26;;;;;;;1.57;0.80;;;13.50;67.80;;;;;;5039417;28;20319;-55
2023/12/11 00:09:52;;;;;;;1.80;1.00;;;13.50;67.90;;;;;;5039890;28;20214;-53
2023/12/11 00:12:17;;;;;;;0.90;0.70;;;13.80;67.20;;;;;;5044376;28;20435;-54
2023/12/11 00:14:43;;;;;;;1.20;1.00;;;13.80;66.60;;;;;;5046759;28;20181;-53
2023/12/11 00:17:09;;;;;;;1.37;0.80;;;14.00;67.30;;;;;;5045135;28;20613;-53
2023/12/11 00:19:35;;;;;;;1.33;1.00;;;14.00;66.40;;;;;;5037273;28;20216;-55
2023/12/11 00:22:00;;;;;;;1.40;0.80;;;13.90;66.20;;;;;;5045947;28;20453;-52
2023/12/11 00:24:26;;;;;;;1.20;0.87;;;14.00;66.80;;;;;;5048678;28;20193;-55
2023/12/11 00:26:52;;;;;;;1.50;0.90;;;14.00;66.40;;;;;;5049080;28;20207;-56
2023/12/11 00:29:17;;;;;;;2.80;1.07;;;14.00;66.70;;;;;;5043291;28;20281;-54
2023/12/11 00:31:43;;;;;;;1.87;1.00;;;13.90;66.80;;;;;;5047833;28;20233;-54
2023/12/11 00:34:08;;;;;;;1.93;0.87;;;13.80;67.40;;;;;;5048415;28;20208;-57
2023/12/11 00:36:34;;;;;;;1.00;0.73;;;13.70;68.10;;;;;;5049521;28;20212;-52
2023/12/11 00:39:00;;;;;;;1.37;0.70;;;13.60;68.50;;;;;;5042668;28;20202;-55
2023/12/11 00:41:25;;;;;;;1.30;0.70;;;13.70;68.30;;;;;;5041795;28;20184;-54
2023/12/11 00:43:51;;;;;;;2.03;0.73;;;13.80;67.60;;;;;;5047288;28;20285;-55
2023/12/11 00:46:22;;;;;;;2.20;0.90;;;13.90;67.60;;;;;;5044747;28;20188;-54
2023/12/11 00:48:48;;;;;;;1.03;0.73;;;13.80;67.90;;;;;;5043926;28;20747;-54
2023/12/11 00:51:16;;;;;;;1.43;0.70;;;14.00;67.30;;;;;;5045389;28;20447;-55
2023/12/11 00:53:41;;;;;;;1.00;0.70;;;14.00;67.10;;;;;;5045363;28;20905;-51
2023/12/11 00:56:07;;;;;;;0.90;0.70;;;14.30;66.30;;;;;;5041542;28;20550;-52
2023/12/11 00:58:33;;;;;;;1.20;0.90;;;14.30;66.20;;;;;;5042888;28;20678;-54
2023/12/11 01:00:58;;;;;;;1.00;0.80;;;14.30;66.00;;;;;;5041945;28;20953;-56
2023/12/11 01:03:24;;;;;;;1.10;1.00;;;14.30;66.90;;;;;;5046420;28;20682;-54
2023/12/11 01:05:49;;;;;;;1.07;0.80;;;14.30;66.20;;;;;;5046747;28;20191;-55
2023/12/11 01:08:15;;;;;;;1.03;0.87;;;14.30;66.20;;;;;;5045998;28;20189;-55
2023/12/11 01:10:40;;;;;;;1.30;0.90;;;14.20;66.80;;;;;;5045923;28;20205;-54
2023/12/11 01:13:06;;;;;;;0.70;0.70;;;14.20;67.00;;;;;;5036710;28;20219;-55
2023/12/11 01:15:32;;;;;;;1.27;0.73;;;14.10;67.40;;;;;;5044418;28;20184;-55
2023/12/11 01:17:57;;;;;;;2.33;0.70;;;13.90;67.90;;;;;;5042163;28;20439;-51
2023/12/11 01:20:23;;;;;;;0.80;0.77;;;13.80;68.90;;;;;;5044778;28;20224;-53
2023/12/11 01:22:49;;;;;;;1.33;0.70;;;13.80;69.00;;;;;;5045635;28;20193;-54
2023/12/11 01:25:14;;;;;;;4.97;1.00;;;13.70;69.80;;;;;;5043365;28;20188;-57
2023/12/11 01:27:40;;;;;;;2.00;1.13;;;13.80;69.50;;;;;;5039866;28;20184;-51
2023/12/11 01:30:06;;;;;;;2.43;0.97;;;13.90;69.50;;;;;;5041881;28;20205;-54
2023/12/11 01:32:32;;;;;;;1.90;0.90;;;13.80;69.60;;;;;;5042185;28;20189;-53
2023/12/11 01:34:58;;;;;;;1.60;0.80;;;13.80;69.80;;;;;;5040675;28;20485;-53
2023/12/11 01:37:23;;;;;;;1.70;0.80;;;13.80;69.70;;;;;;5042178;28;20212;-53
2023/12/11 01:39:49;;;;;;;2.53;0.70;;;13.90;69.40;;;;;;5043974;28;21833;-54
2023/12/11 01:42:14;;;;;;;1.63;0.67;;;13.90;69.70;;;;;;5038223;28;20185;-55
2023/12/11 01:44:40;;;;;;;1.00;0.90;;;14.00;69.60;;;;;;5037040;28;20659;-53
2023/12/11 01:47:06;;;;;;;9.83;1.73;;;14.00;69.30;;;;;;5040084;28;20246;-52
2023/12/11 01:49:32;;;;;;;1.43;0.93;;;14.10;69.00;;;;;;5038087;28;20212;-55
2023/12/11 01:51:58;;;;;;;0.80;0.70;;;14.10;69.20;;;;;;5032353;28;20184;-51
2023/12/11 01:54:25;;;;;;;2.67;0.80;;;14.10;69.20;;;;;;5043581;28;20474;-51
2023/12/11 01:56:50;;;;;;;0.70;0.70;;;14.10;69.30;;;;;;5037172;28;20570;-53
2023/12/11 01:59:17;;;;;;;0.90;0.90;;;14.20;68.70;;;;;;5041551;28;20577;-54
2023/12/11 02:01:43;;;;;;;0.87;0.73;;;14.20;68.70;;;;;;5044306;28;20207;-54
2023/12/11 02:04:09;;;;;;;1.20;1.10;;;14.40;68.50;;;;;;5039617;28;20804;-55
2023/12/11 02:06:36;;;;;;;0.83;0.80;;;14.40;68.40;;;;;;5040447;28;20439;-53
2023/12/11 02:09:02;;;;;;;0.70;0.70;;;14.50;68.00;;;;;;5038944;28;20474;-54
2023/12/11 02:11:27;;;;;;;2.60;0.90;;;14.50;68.00;;;;;;5036860;28;20234;-57
2023/12/11 02:13:53;;;;;;;0.93;0.60;;;14.60;67.70;;;;;;5042178;28;20954;-53
2023/12/11 02:16:18;;;;;;;1.00;0.90;;;14.60;67.60;;;;;;5043726;28;20787;-55
2023/12/11 02:18:44;;;;;;;1.33;0.80;;;14.50;68.00;;;;;;5034074;28;20219;-53
2023/12/11 02:21:11;;;;;;;0.83;0.80;;;14.50;67.90;;;;;;5042518;28;20272;-55
2023/12/11 02:23:58;;;;;;;1.23;0.70;;;14.70;67.50;;;;;;5043926;28;20181;-54
2023/12/11 02:26:23;;;;;;;1.73;1.27;;;14.80;66.90;;;;;;5040650;28;20430;-54
2023/12/11 02:28:49;;;;;;;0.70;0.70;;;15.00;66.20;;;;;;5039649;28;20513;-55
2023/12/11 02:31:15;;;;;;;0.87;0.70;;;15.00;65.70;;;;;;5038301;28;20752;-53
2023/12/11 02:33:40;;;;;;;1.00;0.70;;;15.00;65.60;;;;;;5042573;28;20838;-54
2023/12/11 02:36:06;;;;;;;1.60;0.90;;;15.00;65.60;;;;;;5043055;28;20219;-54
2023/12/11 02:38:32;;;;;;;1.03;0.70;;;15.00;65.70;;;;;;5047246;28;20675;-53
2023/12/11 02:40:57;;;;;;;0.70;0.70;;;14.90;66.10;;;;;;5042704;28;20690;-56
2023/12/11 02:43:23;;;;;;;0.70;0.63;;;14.90;66.20;;;;;;5046558;28;20193;-55
2023/12/11 02:45:48;;;;;;;0.70;0.63;;;14.60;66.40;;;;;;5045525;28;20184;-53
2023/12/11 02:48:14;;;;;;;1.00;0.70;;;14.70;66.30;;;;;;5045984;28;20656;-56
2023/12/11 02:50:40;;;;;;;0.60;0.60;;;14.70;66.90;;;;;;5045801;28;20302;-56
2023/12/11 02:53:05;;;;;;;0.90;0.63;;;14.60;67.30;;;;;;5044514;28;20181;-55
2023/12/11 02:55:31;;;;;;;0.80;0.80;;;14.70;67.70;;;;;;5040983;28;20676;-55
2023/12/11 02:57:58;;;;;;;0.70;0.70;;;14.70;67.90;;;;;;5047597;28;20283;-54
2023/12/11 03:00:25;;;;;;;0.60;0.60;;;14.50;68.10;;;;;;5046784;28;20697;-52
2023/12/11 03:02:50;;;;;;;1.47;0.67;;;14.60;69.00;;;;;;5048558;28;20439;-54
2023/12/11 03:05:16;;;;;;;0.63;0.60;;;14.50;69.10;;;;;;5048739;28;20442;-54
2023/12/11 03:07:41;;;;;;;0.70;0.67;;;14.30;69.30;;;;;;5048911;28;20227;-52
2023/12/11 03:10:08;;;;;;;1.17;0.70;;;14.20;70.10;;;;;;5043770;28;20255;-52
2023/12/11 03:12:34;;;;;;;1.27;0.63;;;14.20;69.80;;;;;;5042467;28;20247;-56
2023/12/11 03:14:59;;;;;;;0.87;0.60;;;14.30;70.10;;;;;;5039563;28;20809;-55
2023/12/11 03:17:25;;;;;;;0.80;0.80;;;14.30;70.10;;;;;;5038624;28;20847;-56
2023/12/11 03:19:52;;;;;;;1.10;0.60;;;14.60;69.20;;;;;;5046072;28;20211;-55
2023/12/11 03:22:18;;;;;;;2.00;0.80;;;14.60;69.80;;;;;;5045215;28;20216;-56
2023/12/11 03:24:44;;;;;;;1.17;1.00;;;14.70;69.70;;;;;;5047102;28;20443;-53
2023/12/11 03:27:09;;;;;;;1.00;0.87;;;14.60;70.10;;;;;;5046750;28;20978;-54
2023/12/11 03:29:35;;;;;;;1.57;0.80;;;14.70;70.10;;;;;;5045788;28;20222;-55
2023/12/11 03:32:01;;;;;;;1.60;1.10;;;14.80;69.50;;;;;;5045798;28;20235;-56
2023/12/11 03:34:26;;;;;;;0.73;0.73;;;14.80;69.40;;;;;;5043717;28;20193;-56
2023/12/11 03:36:52;;;;;;;0.90;0.70;;;14.90;69.20;;;;;;5041607;28;20491;-55
2023/12/11 03:39:17;;;;;;;0.67;0.67;;;14.90;69.30;;;;;;5043892;28;20205;-56
2023/12/11 03:41:44;;;;;;;1.10;0.73;;;14.90;69.40;;;;;;5044464;28;20187;-57
2023/12/11 03:44:09;;;;;;;0.63;0.60;;;14.90;69.80;;;;;;5043177;28;20219;-56
2023/12/11 03:46:35;;;;;;;1.60;0.77;;;15.00;69.50;;;;;;5041609;28;20488;-55
2023/12/11 03:49:00;;;;;;;1.17;1.07;;;15.10;69.50;;;;;;5037764;28;20232;-57
2023/12/11 03:51:26;;;;;;;1.37;0.60;;;15.10;69.60;;;;;;5037000;28;20193;-56
2023/12/11 03:53:52;;;;;;;1.00;0.87;;;14.90;70.60;;;;;;5045543;28;20249;-55
2023/12/11 03:56:17;;;;;;;8.10;3.37;;;14.90;71.00;;;;;;5045859;28;20230;-54
2023/12/11 03:58:43;;;;;;;4.13;2.53;;;14.80;71.20;;;;;;5045881;28;20201;-54
2023/12/11 04:01:08;;;;;;;1.07;0.73;;;14.90;71.10;;;;;;5043440;28;20213;-56
2023/12/11 04:03:34;;;;;;;1.70;0.70;;;14.90;70.80;;;;;;5045207;28;21046;-54
2023/12/11 04:05:59;;;;;;;2.23;1.00;;;14.90;70.90;;;;;;5045282;28;20192;-53
2023/12/11 04:08:25;;;;;;;1.10;0.90;;;15.00;70.40;;;;;;5048819;28;20896;-54
2023/12/11 04:10:50;;;;;;;3.90;1.00;;;15.00;70.20;;;;;;5045611;28;20196;-54
2023/12/11 04:13:16;;;;;;;1.00;1.00;;;15.10;69.70;;;;;;5045311;28;20194;-53
2023/12/11 04:15:42;;;;;;;0.83;0.83;;;15.10;69.40;;;;;;5046273;28;20242;-54
2023/12/11 04:18:07;;;;;;;1.00;0.90;;;15.20;69.10;;;;;;5047313;28;20203;-55
2023/12/11 04:20:33;;;;;;;1.90;0.90;;;15.20;69.10;;;;;;5044406;28;20304;-55
2023/12/11 04:22:58;;;;;;;2.83;0.90;;;15.10;68.90;;;;;;5044259;28;20192;-56
2023/12/11 04:25:24;;;;;;;1.80;0.87;;;15.20;68.70;;;;;;5042874;28;20184;-52
2023/12/11 04:27:49;;;;;;;0.67;0.63;;;15.10;68.70;;;;;;5044349;28;20212;-54
2023/12/11 04:30:15;;;;;;;1.23;0.90;;;15.00;69.00;;;;;;5043044;28;20201;-56
2023/12/11 04:32:41;;;;;;;0.80;0.80;;;15.00;69.00;;;;;;5046999;28;20263;-55
2023/12/11 04:35:07;;;;;;;1.20;0.73;;;15.00;68.80;;;;;;5045047;28;20679;-50
2023/12/11 04:37:32;;;;;;;1.37;0.80;;;15.00;68.90;;;;;;5043314;28;20224;-54
2023/12/11 04:39:58;;;;;;;1.37;0.73;;;14.90;69.50;;;;;;5044167;28;20381;-56
2023/12/11 04:42:23;;;;;;;1.77;0.87;;;15.00;69.10;;;;;;5045148;28;20173;-53
2023/12/11 04:44:49;;;;;;;1.20;1.00;;;14.90;68.90;;;;;;5042409;28;20554;-55
2023/12/11 04:47:14;;;;;;;4.10;0.80;;;14.90;68.80;;;;;;5040309;28;20211;-54
2023/12/11 04:49:42;;;;;;;1.13;0.80;;;14.90;69.00;;;;;;5037913;28;20287;-56
2023/12/11 04:52:08;;;;;;;0.80;0.70;;;14.70;69.20;;;;;;5044127;28;20181;-52
2023/12/11 04:54:33;;;;;;;0.83;0.70;;;14.70;69.80;;;;;;5044851;28;20492;-55
2023/12/11 04:56:59;;;;;;;0.87;0.70;;;14.50;70.40;;;;;;5043159;28;20683;-53
2023/12/11 04:59:25;;;;;;;2.13;0.90;;;14.60;70.20;;;;;;5044420;28;20204;-51
2023/12/11 05:01:50;;;;;;;2.63;1.13;;;14.70;69.30;;;;;;5045372;28;20659;-54
2023/12/11 05:04:16;;;;;;;3.70;1.10;;;14.80;68.90;;;;;;5041048;28;20571;-51
2023/12/11 05:06:43;;;;;;;1.67;0.90;;;14.80;68.50;;;;;;5043913;28;20334;-51
2023/12/11 05:09:09;;;;;;;2.40;0.80;;;14.90;68.00;;;;;;5046146;28;20235;-55
2023/12/11 05:11:35;;;;;;;1.43;0.80;;;14.90;67.70;;;;;;5042387;28;20451;-51
2023/12/11 05:14:00;;;;;;;2.40;0.70;;;14.90;67.70;;;;;;5045749;28;20430;-56
2023/12/11 05:16:26;;;;;;;1.27;0.70;;;14.80;67.80;;;;;;5046575;28;20311;-52
2023/12/11 05:18:52;;;;;;;2.23;0.70;;;14.50;68.70;;;;;;5040856;28;20209;-55
2023/12/11 05:21:17;;;;;;;2.93;1.00;;;14.30;68.90;;;;;;5045919;28;20587;-54
2023/12/11 05:23:43;;;;;;;2.67;0.57;;;14.20;69.10;;;;;;5042952;28;20189;-56
2023/12/11 05:26:08;;;;;;;0.70;0.63;;;14.30;69.00;;;;;;5044223;28;20192;-53
2023/12/11 05:28:34;;;;;;;2.17;0.80;;;14.30;69.00;;;;;;5042216;28;20977;-53
2023/12/11 05:30:59;;;;;;;1.27;0.70;;;14.10;69.30;;;;;;5040120;28;20175;-54
2023/12/11 05:33:25;;;;;;;2.00;0.80;;;14.10;69.60;;;;;;5041825;28;20260;-56
2023/12/11 05:35:51;;;;;;;2.57;0.70;;;14.20;69.70;;;;;;5047124;28;20220;-56
2023/12/11 05:38:16;;;;;;;0.57;0.57;;;14.30;68.80;;;;;;5040697;28;20184;-56
2023/12/11 05:40:42;;;;;;;2.43;0.80;;;14.40;68.60;;;;;;5043634;28;20204;-55
2023/12/11 05:43:07;;;;;;;1.10;0.70;;;14.30;68.30;;;;;;5039176;28;20180;-56
2023/12/11 05:45:33;;;;;;;4.20;0.70;;;14.40;68.30;;;;;;5047217;28;20197;-56
2023/12/11 05:47:58;;;;;;;1.27;0.70;;;14.50;67.50;;;;;;5045804;28;20214;-53
2023/12/11 05:50:24;;;;;;;0.90;0.73;;;14.70;66.60;;;;;;5045590;28;20204;-56
2023/12/11 05:52:49;;;;;;;1.37;0.60;;;14.50;66.20;;;;;;5042161;28;20543;-55
2023/12/11 05:55:15;;;;;;;1.23;0.80;;;14.40;67.50;;;;;;5045011;28;20193;-54
2023/12/11 05:57:41;;;;;;;1.23;0.80;;;14.40;66.70;;;;;;5043301;28;20575;-56
2023/12/11 06:00:07;;;;;;;2.00;0.87;;;14.40;66.90;;;;;;5043600;28;20217;-52
2023/12/11 06:02:32;;;;;;;1.67;0.70;;;14.40;67.00;;;;;;5045481;28;20193;-55
2023/12/11 06:04:58;;;;;;;0.90;0.80;;;14.30;66.70;;;;;;5045069;28;20431;-55
2023/12/11 06:07:24;;;;;;;3.00;0.90;;;14.30;67.00;;;;;;5041183;28;20250;-56
2023/12/11 06:09:49;;;;;;;1.00;0.90;;;14.30;67.10;;;;;;5046653;28;20232;-55
2023/12/11 06:12:15;;;;;;;3.03;1.07;;;14.30;67.30;;;;;;5045056;28;20189;-56
2023/12/11 06:14:42;;;;;;;1.23;0.80;;;14.20;67.50;;;;;;5044752;28;20893;-56
2023/12/11 06:17:08;;;;;;;1.27;1.00;;;14.20;67.40;;;;;;5043432;28;20475;-53
2023/12/11 06:19:33;;;;;;;2.37;0.70;;;14.10;67.40;;;;;;5041654;28;20827;-53
2023/12/11 06:21:59;;;;;;;1.60;0.97;;;14.00;67.90;;;;;;5041233;28;20508;-53
2023/12/11 06:24:25;;;;;;;2.83;1.00;;;14.10;68.10;;;;;;5038677;28;20263;-56
2023/12/11 06:26:50;;;;;;;1.00;0.90;;;14.20;67.60;;;;;;5039822;28;20189;-56
2023/12/11 06:29:16;;;;;;;0.70;0.70;;;14.10;67.40;;;;;;5038943;28;20209;-56
2023/12/11 06:31:41;;;;;;;0.70;0.70;;;14.10;67.30;;;;;;5038026;28;20181;-52
2023/12/11 06:34:07;;;;;;;6.03;2.80;;;14.10;67.60;;;;;;5044770;28;20307;-53
2023/12/11 06:36:32;;;;;;;1.10;0.77;;;14.20;67.50;;;;;;5037166;28;20225;-55
2023/12/11 06:38:58;;;;;;;1.80;1.17;;;14.20;67.50;;;;;;5041748;28;20212;-51
2023/12/11 06:41:24;;;;;;;1.37;0.90;;;14.20;67.40;;;;;;5045032;28;20672;-53
2023/12/11 06:43:53;;;;;;;1.30;1.00;;;14.10;67.30;;;;;;5041624;28;20189;-55
2023/12/11 06:46:19;;;;;;;1.73;0.73;;;14.10;67.60;;;;;;5044608;28;20189;-52
2023/12/11 06:48:45;;;;;;;2.70;1.20;;;14.10;67.70;;;;;;5042367;28;20993;-53
2023/12/11 06:51:10;;;;;;;0.93;0.83;;;14.30;67.40;;;;;;5037421;28;20181;-56
2023/12/11 06:53:36;;;;;;;1.63;0.83;;;14.30;66.60;;;;;;5042551;28;20197;-52
2023/12/11 06:56:03;;;;;;;1.00;0.90;;;14.50;66.40;;;;;;5042465;28;20220;-56
2023/12/11 06:58:29;;;;;;;5.40;0.80;;;14.70;65.70;;;;;;5045105;28;20230;-56
2023/12/11 07:00:54;;;;;;;1.03;0.77;;;14.40;65.70;;;;;;5042249;28;20471;-55
2023/12/11 07:03:20;;;;;;;1.20;1.10;;;14.30;66.00;;;;;;5043574;28;20176;-55
2023/12/11 07:05:46;;;;;;;4.60;0.80;;;14.20;66.00;;;;;;5041006;28;20181;-55
2023/12/11 07:08:11;;;;;;;2.30;0.90;;;14.00;66.90;;;;;;5048342;28;20180;-55
2023/12/11 07:10:38;;;;;;;1.73;0.80;;;14.10;67.10;;;;;;5038250;28;20291;-56
2023/12/11 07:13:03;;;;;;;1.47;1.00;;;14.40;66.70;;;;;;5042282;28;20280;-52
2023/12/11 07:15:29;;;;;;;2.27;1.00;;;14.70;65.50;;;;;;5042380;28;20994;-53
2023/12/11 07:17:56;;;;;;;1.73;0.90;;;14.90;64.80;;;;;;5040852;28;20220;-54
2023/12/11 07:20:22;;;;;;;0.70;0.70;;;15.10;64.00;;;;;;5047800;28;20515;-55
2023/12/11 07:22:51;;;;;;;1.17;0.80;;;15.20;63.70;;;;;;5046243;28;20431;-55
2023/12/11 07:25:17;;;;;;;0.70;0.70;;;15.40;63.50;;;;;;5045081;28;20458;-54
2023/12/11 07:27:45;;;;;;;1.53;0.83;;;15.50;63.90;;;;;;5042314;28;20435;-56
2023/12/11 07:30:14;;;;;;;1.77;1.00;;;15.50;62.70;;;;;;5040653;28;20633;-54
2023/12/11 07:32:39;;;;;;;0.90;0.70;;;15.60;62.70;;;;;;5047896;28;20489;-55
2023/12/11 07:35:08;;;;;;;1.83;0.70;;;15.60;62.60;;;;;;5039331;28;20459;-55
2023/12/11 07:37:33;;;;;;;0.97;0.80;;;15.60;62.70;;;;;;5044065;28;20690;-63
2023/12/11 07:39:59;;;;;;;1.63;1.10;;;15.60;62.40;;;;;;5037115;28;20562;-57
2023/12/11 07:42:25;;;;;;;1.83;0.83;;;15.60;62.40;;;;;;5044097;28;20683;-55
2023/12/11 07:44:50;;;;;;;4.17;0.90;;;15.70;62.40;;;;;;5039792;28;20785;-57
2023/12/11 07:47:16;;;;;;;1.30;0.93;;;15.60;62.30;;;;;;5048606;28;20303;-54
2023/12/11 07:49:41;;;;;;;1.67;0.90;;;15.70;62.00;;;;;;5040618;28;20209;-56
2023/12/11 07:52:07;;;;;;;1.20;0.80;;;15.70;62.90;;;;;;5034165;28;20180;-56
2023/12/11 07:54:32;;;;;;;1.00;0.60;;;15.80;62.00;;;;;;5032179;28;20243;-56
2023/12/11 07:56:58;;;;;;;2.60;1.00;;;15.90;61.90;;;;;;5040285;28;20236;-52
2023/12/11 07:59:24;;;;;;;0.80;0.80;;;16.00;61.90;;;;;;5040378;28;20225;-56
2023/12/11 08:01:52;;;;;;;0.80;0.80;;;16.00;61.60;;;;;;5040612;28;20462;-53
2023/12/11 08:04:17;;;;;;;0.80;0.80;;;16.10;61.20;;;;;;5034519;28;20288;-54
2023/12/11 08:06:43;;;;;;;2.13;0.90;;;15.90;60.90;;;;;;5048454;28;21021;-54
2023/12/11 08:09:09;;;;;;;0.80;0.70;;;16.00;60.90;;;;;;5033368;28;20208;-55
2023/12/11 08:11:35;;;;;;;1.87;1.13;;;16.00;60.80;;;;;;5044637;28;20187;-56
2023/12/11 08:14:01;;;;;;;2.20;1.30;;;16.10;60.50;;;;;;5033016;28;20268;-55
2023/12/11 08:16:27;;;;;;;1.20;0.80;;;16.00;60.40;;;;;;5041600;28;20562;-52
2023/12/11 08:18:53;;;;;;;0.67;0.67;;;16.00;60.70;;;;;;5043433;28;20212;-54
2023/12/11 08:21:19;;;;;;;1.40;1.00;;;16.00;60.60;;;;;;5048490;28;20802;-52
2023/12/11 08:23:46;;;;;;;1.20;0.90;;;16.10;60.70;;;;;;5045713;28;20435;-55
2023/12/11 08:26:17;;;;;;;0.70;0.70;;;16.00;60.30;;;;;;5044695;28;20726;-55
2023/12/11 08:28:42;;;;;;;1.07;1.00;;;15.90;60.30;;;;;;5038398;28;20455;-53
2023/12/11 08:31:08;;;;;;;1.10;0.80;;;16.00;60.50;;;;;;5043127;28;22215;-54
2023/12/11 08:33:34;;;;;;;3.23;1.17;;;16.00;60.30;;;;;;5042509;28;20299;-53
2023/12/11 08:36:00;;;;;;;1.00;0.90;;;15.90;60.50;;;;;;5044602;28;20664;-54
2023/12/11 08:38:26;;;;;;;1.53;1.00;;;15.80;60.10;;;;;;5036221;28;20190;-53
2023/12/11 08:40:52;;;;;;;1.03;0.80;;;16.00;60.10;;;;;;5041718;28;20181;-55
2023/12/11 08:43:18;;;;;;;1.13;1.00;;;16.00;59.90;;;;;;5043861;28;20469;-52
2023/12/11 08:45:43;;;;;;;1.40;1.30;;;15.80;60.20;;;;;;5046887;28;20663;-56
2023/12/11 08:48:09;;;;;;;1.20;1.10;;;15.80;60.30;;;;;;5039768;28;20188;-55
2023/12/11 08:50:35;;;;;;;2.13;1.43;;;15.60;60.90;;;;;;5029743;28;20213;-54
2023/12/11 08:53:03;;;;;;;3.07;1.23;;;15.60;60.90;;;;;;5030862;28;20196;-53
2023/12/11 08:55:29;;;;;;;3.47;1.20;;;15.70;61.20;;;;;;5041989;28;20942;-55
2023/12/11 08:57:55;;;;;;;2.33;1.20;;;15.50;60.50;;;;;;5045941;28;20482;-55
2023/12/11 09:00:21;;;;;;;1.30;1.20;;;15.50;60.60;;;;;;5043112;28;20486;-55
2023/12/11 09:02:47;;;;;;;1.20;0.90;;;15.50;60.60;;;;;;5041460;28;20459;-52
2023/12/11 09:05:13;;;;;;;3.67;1.17;;;15.60;60.40;;;;;;5043556;28;20965;-55
2023/12/11 09:07:38;;;;;;;1.90;1.27;;;15.80;59.70;;;;;;5044890;28;20472;-54
2023/12/11 09:10:07;;;;;;;2.00;0.90;;;15.60;59.60;;;;;;5043352;28;20327;-53
2023/12/11 09:12:32;;;;;;;0.90;0.90;;;15.50;59.80;;;;;;5045253;28;20738;-54
2023/12/11 09:14:58;;;;;;;1.07;0.90;;;15.80;59.70;;;;;;5043412;28;20500;-54
2023/12/11 09:17:24;;;;;;;2.13;1.10;;;15.80;59.30;;;;;;5040386;28;20680;-50
2023/12/11 09:19:49;;;;;;;2.07;1.17;;;15.80;59.00;;;;;;5045781;28;20208;-53
2023/12/11 09:22:15;;;;;;;2.90;1.23;;;15.70;59.10;;;;;;5037928;28;20181;-53
2023/12/11 09:24:41;;;;;;;2.40;1.10;;;15.60;59.20;;;;;;5041716;28;20188;-55
2023/12/11 09:27:07;;;;;;;2.10;1.20;;;15.50;59.40;;;;;;5044015;28;20188;-55
2023/12/11 09:29:33;;;;;;;1.00;0.90;;;15.40;59.30;;;;;;5046993;28;20693;-53
2023/12/11 09:31:59;;;;;;;3.03;0.90;;;15.20;59.20;;;;;;5047640;28;20522;-55
2023/12/11 09:34:24;;;;;;;2.40;1.10;;;15.00;60.00;;;;;;5044261;28;20465;-52
2023/12/11 09:36:50;;;;;;;3.60;1.03;;;15.10;60.50;;;;;;5041404;28;20212;-56
2023/12/11 09:39:15;;;;;;;2.60;1.03;;;15.00;60.40;;;;;;5043199;28;20204;-54
2023/12/11 09:41:44;;;;;;;1.13;1.07;;;15.10;60.10;;;;;;5039367;28;20185;-53
2023/12/11 09:44:10;;;;;;;1.30;1.20;;;15.20;60.10;;;;;;5044886;28;20189;-53
2023/12/11 09:47:09;;;;;;;1.37;0.70;;;15.30;60.40;;;;;;5047255;28;20442;-53
2023/12/11 09:49:35;;;;;;;2.40;1.10;;;15.20;59.20;;;;;;5021023;28;20474;-53
2023/12/11 09:52:02;;;;;;;1.53;0.80;;;14.90;59.70;;;;;;5042455;28;20424;-51
2023/12/11 09:54:27;;;;;;;3.00;1.60;;;14.90;59.80;;;;;;5040224;28;20419;-51
2023/12/11 09:56:54;;;;;;;1.20;1.07;;;15.10;59.80;;;;;;5042384;28;21030;-55
2023/12/11 09:59:20;;;;;;;3.43;1.00;;;15.30;59.50;;;;;;5041088;28;20323;-54
2023/12/11 10:01:47;;;;;;;2.20;1.90;;;15.50;59.00;;;;;;5040711;28;20462;-53
2023/12/11 10:04:13;;;;;;;2.90;2.00;;;15.50;59.10;;;;;;5043680;28;20824;-56
2023/12/11 10:06:39;;;;;;;2.60;1.40;;;15.60;58.80;;;;;;5045169;28;20505;-55
2023/12/11 10:09:05;;;;;;;1.50;1.40;;;15.80;58.60;;;;;;5044619;28;20470;-55
2023/12/11 10:11:31;;;;;;;2.10;1.90;;;15.80;58.20;;;;;;5044052;28;20439;-56
2023/12/11 10:14:11;;;;;;;8.13;3.23;;;15.80;58.10;;;;;;5043661;28;20188;-54
2023/12/11 10:16:37;;;;;;;3.40;1.73;;;15.80;58.20;;;;;;5040110;28;20541;-53
2023/12/11 10:19:02;;;;;;;1.67;1.27;;;15.70;58.60;;;;;;5043896;28;20494;-54
2023/12/11 10:21:39;;;;;;;2.03;1.10;;;15.80;58.50;;;;;;5045974;28;20192;-51
2023/12/11 10:24:13;;;;;;;1.27;0.80;;;15.80;58.30;;;;;;5045001;28;20277;-51
2023/12/11 10:26:44;;;;;;;2.43;0.83;;;15.80;58.40;;;;;;5045366;28;20454;-51
2023/12/11 10:29:25;;;;;;;1.30;0.90;;;16.00;58.20;;;;;;5044103;28;20657;-54
2023/12/11 10:31:52;;;;;;;3.90;1.13;;;16.30;57.90;;;;;;5047470;28;20427;-54
2023/12/11 10:34:18;;;;;;;1.60;1.00;;;16.40;57.30;;;;;;5045874;28;20620;-55
2023/12/11 10:36:49;;;;;;;2.00;1.03;;;16.40;57.10;;;;;;5046164;28;21069;-52
2023/12/11 10:39:14;;;;;;;2.10;1.07;;;16.50;57.40;;;;;;5046157;28;21099;-55
2023/12/11 10:41:40;;;;;;;2.27;1.00;;;16.60;56.90;;;;;;5043326;28;20438;-54
2023/12/11 10:44:06;;;;;;;2.07;1.10;;;16.80;57.30;;;;;;5041810;28;20646;-55
2023/12/11 10:46:32;;;;;;;0.80;0.80;;;16.70;56.60;;;;;;5048286;28;20687;-54
2023/12/11 10:49:00;;;;;;;1.73;1.07;;;16.70;56.60;;;;;;5041477;28;20982;-56
2023/12/11 10:51:27;;;;;;;1.27;0.90;;;16.70;56.60;;;;;;5047839;28;20188;-56
2023/12/11 10:53:53;;;;;;;1.57;0.90;;;16.80;56.40;;;;;;5045967;28;20950;-54
2023/12/11 10:56:19;;;;;;;3.10;0.93;;;16.90;56.20;;;;;;5044629;28;20477;-53
2023/12/11 10:58:44;;;;;;;3.37;1.30;;;16.90;56.00;;;;;;5049806;28;20672;-55
2023/12/11 11:01:12;;;;;;;1.20;0.87;;;17.00;56.30;;;;;;5046074;28;20254;-54
2023/12/11 11:03:38;;;;;;;3.10;1.33;;;17.00;56.10;;;;;;5047321;28;20246;-56
2023/12/11 11:06:05;;;;;;;4.10;1.30;;;16.90;55.90;;;;;;5047558;28;20525;-54
2023/12/11 11:08:46;;;;;;;4.60;1.40;;;16.80;56.40;;;;;;5049657;28;20445;-54
2023/12/11 11:11:32;;;;;;;3.13;1.17;;;16.90;56.40;;;;;;5047800;28;20443;-56
2023/12/11 11:14:26;;;;;;;2.10;1.60;;;17.10;56.10;;;;;;5045701;28;20411;-57
2023/12/11 11:16:52;;;;;;;2.27;1.00;;;17.10;55.80;;;;;;5042908;28;20504;-59
2023/12/11 11:19:18;;;;;;;3.33;1.60;;;17.00;55.70;;;;;;5042740;28;20469;-58
2023/12/11 11:22:06;;;;;;;2.87;1.27;;;16.90;56.00;;;;;;5047640;28;20526;-55
2023/12/11 11:24:34;;;;;;;2.17;1.30;;;17.10;56.10;;;;;;5043822;28;20427;-56
2023/12/11 11:27:01;;;;;;;2.97;1.40;;;17.00;55.90;;;;;;5042637;28;20447;-54
2023/12/11 11:29:40;;;;;;;3.60;1.20;;;16.90;55.50;;;;;;5049136;28;21117;-54
2023/12/11 11:32:05;;;;;;;4.47;1.37;;;16.40;54.80;;;;;;5047840;28;20439;-57
2023/12/11 11:34:40;;;;;;;3.70;1.37;;;16.50;55.60;;;;;;5045512;28;20511;-54
2023/12/11 11:37:12;;;;;;;2.23;1.13;;;16.40;55.40;;;;;;5040726;28;22162;-55
2023/12/11 11:40:00;;;;;;;3.90;1.47;;;16.40;56.10;;;;;;5046084;28;20451;-53
2023/12/11 11:42:27;;;;;;;3.20;1.40;;;16.70;56.00;;;;;;5038666;28;20440;-56
2023/12/11 11:44:57;;;;;;;4.73;1.27;;;16.60;54.80;;;;;;5046466;28;20435;-55
2023/12/11 11:47:24;;;;;;;5.70;1.40;;;16.20;54.90;;;;;;5044361;28;20827;-55
2023/12/11 11:49:50;;;;;;;3.60;1.53;;;16.20;54.60;;;;;;5047882;28;20438;-53
2023/12/11 11:52:22;;;;;;;3.33;1.40;;;16.20;54.30;;;;;;5046463;28;21016;-53
2023/12/11 11:54:49;;;;;;;5.23;1.20;;;15.80;54.00;;;;;;5044510;28;20627;-54
2023/12/11 11:57:15;;;;;;;4.30;1.40;;;15.80;54.90;;;;;;5044921;28;20556;-55
2023/12/11 11:59:46;;;;;;;4.97;1.43;;;15.90;54.30;;;;;;5047075;28;20565;-53
2023/12/11 12:02:20;;;;;;;8.67;2.63;;;15.90;53.90;;;;;;5045974;28;20192;-56
2023/12/11 12:04:45;;;;;;;7.33;1.70;;;15.80;54.10;;;;;;5045371;28;20503;-57
2023/12/11 12:07:11;;;;;;;2.87;1.97;;;15.70;54.10;;;;;;5045945;28;20572;-54
2023/12/11 12:09:36;;;;;;;3.27;1.60;;;15.80;54.10;;;;;;5046179;28;20298;-55
2023/12/11 12:12:04;;;;;;;6.70;1.60;;;15.70;54.30;;;;;;5045007;28;20184;-53
2023/12/11 12:14:29;;;;;;;8.30;1.80;;;15.80;54.10;;;;;;5047343;28;20272;-55
2023/12/11 12:16:55;;;;;;;1.90;1.33;;;15.80;54.10;;;;;;5048009;28;20558;-57
2023/12/11 12:19:31;;;;;;;4.00;2.23;;;16.10;54.20;;;;;;5044716;28;20285;-56
2023/12/11 12:21:56;;;;;;;7.23;3.33;;;16.30;53.80;;;;;;5044839;28;20599;-56
2023/12/11 12:24:22;;;;;;;4.80;1.10;;;16.60;53.50;;;;;;5045290;28;20446;-54
2023/12/11 12:26:55;;;;;;;8.17;1.60;;;16.60;52.50;;;;;;5047490;28;20228;-52
2023/12/11 12:29:20;;;;;;;9.67;1.93;;;16.60;52.30;;;;;;5047535;28;20205;-55
2023/12/11 12:31:46;;;;;;;4.03;1.50;;;16.60;51.90;;;;;;5046467;28;20432;-56
2023/12/11 12:34:16;;;;;;;4.67;1.73;;;16.70;52.00;;;;;;5041545;28;20181;-54
2023/12/11 12:36:43;;;;;;;9.37;1.80;;;16.70;52.20;;;;;;5044074;28;20216;-55
2023/12/11 12:39:11;;;;;;;3.50;1.43;;;16.70;52.20;;;;;;5043801;28;20456;-54
2023/12/11 12:41:36;;;;;;;5.03;2.07;;;16.80;51.80;;;;;;5047589;28;20494;-57
2023/12/11 12:44:02;;;;;;;3.70;1.40;;;16.70;51.50;;;;;;5043696;28;20455;-55